Time;durP1;ratioP1;P1;durP2;ratioP2;P2;SDS_P1;SDS_P2;PMS_P1;PMS_P2;Temp;Humidity;BMP_temperature;BMP_pressure;BME280_temperature;BME280_humidity;BME280_pressure;Samples;Min_cycle;Max_cycle;Signal;HPM_P1;HPM_P2
2022/09/30 00:01:40;;;;;;;1.90;1.80;;;16.60;60.20;;;;;;5054990;28;20696;-65
2022/09/30 00:04:08;;;;;;;1.92;1.83;;;16.60;60.30;;;;;;5055499;28;20194;-64
2022/09/30 00:06:34;;;;;;;1.92;1.80;;;16.50;60.20;;;;;;5055975;28;20197;-64
2022/09/30 00:09:00;;;;;;;1.60;1.50;;;16.60;60.30;;;;;;5054879;28;20634;-65
2022/09/30 00:11:28;;;;;;;2.85;2.00;;;16.60;60.30;;;;;;5055420;28;20633;-65
2022/09/30 00:13:54;;;;;;;1.90;1.80;;;16.60;60.40;;;;;;5055821;28;20190;-65
2022/09/30 00:16:20;;;;;;;1.98;1.70;;;16.60;60.30;;;;;;5054637;28;20178;-65
2022/09/30 00:18:46;;;;;;;1.98;1.88;;;16.60;60.30;;;;;;5055717;28;20183;-65
2022/09/30 00:21:12;;;;;;;1.90;1.80;;;16.60;60.30;;;;;;5055501;28;20704;-65
2022/09/30 00:23:38;;;;;;;1.70;1.60;;;16.60;60.30;;;;;;5054915;28;20286;-65
2022/09/30 00:26:06;;;;;;;2.20;2.00;;;16.60;60.40;;;;;;5055275;28;20258;-65
2022/09/30 00:28:31;;;;;;;1.80;1.70;;;16.60;60.40;;;;;;5055586;28;20187;-65
2022/09/30 00:31:01;;;;;;;3.10;1.52;;;16.60;60.40;;;;;;5054426;28;20183;-64
2022/09/30 00:33:27;;;;;;;1.50;1.40;;;16.60;60.40;;;;;;5055616;28;20185;-64
2022/09/30 00:35:52;;;;;;;1.30;1.30;;;16.50;60.40;;;;;;5055301;28;20357;-64
2022/09/30 00:38:18;;;;;;;1.83;1.52;;;16.50;60.30;;;;;;5054349;28;20217;-65
2022/09/30 00:40:43;;;;;;;1.80;1.70;;;16.50;60.30;;;;;;5055354;28;20228;-65
2022/09/30 00:43:14;;;;;;;1.60;1.50;;;16.50;60.30;;;;;;5054143;28;20215;-65
2022/09/30 00:45:39;;;;;;;1.60;1.50;;;16.50;60.30;;;;;;5055208;28;20181;-65
2022/09/30 00:48:11;;;;;;;1.92;1.42;;;16.50;60.30;;;;;;5053202;28;20552;-65
2022/09/30 00:50:37;;;;;;;2.22;1.73;;;16.50;60.30;;;;;;5053376;28;20537;-65
2022/09/30 00:53:14;;;;;;;1.58;1.48;;;16.50;60.30;;;;;;5053204;28;20184;-65
2022/09/30 00:56:19;;;;;;;1.67;1.58;;;16.50;60.40;;;;;;5054890;28;20167;-65
2022/09/30 00:58:57;;;;;;;1.73;1.63;;;16.50;60.30;;;;;;5032129;28;20179;-65
2022/09/30 01:01:23;;;;;;;1.42;1.33;;;16.50;60.30;;;;;;5049566;28;20585;-65
2022/09/30 01:04:15;;;;;;;2.28;1.50;;;16.50;60.30;;;;;;5053796;28;20209;-65
2022/09/30 01:06:41;;;;;;;1.67;1.58;;;16.50;60.30;;;;;;5052482;28;20189;-65
2022/09/30 01:09:07;;;;;;;1.70;1.60;;;16.50;60.40;;;;;;5054524;28;20171;-65
2022/09/30 01:11:32;;;;;;;1.50;1.40;;;16.40;60.20;;;;;;5053865;28;20277;-65
2022/09/30 01:14:06;;;;;;;1.33;1.23;;;16.50;60.30;;;;;;5054475;28;20178;-65
2022/09/30 01:16:50;;;;;;;1.40;1.40;;;16.50;60.40;;;;;;5053430;28;20179;-66
2022/09/30 01:19:50;;;;;;;1.50;1.40;;;16.40;60.30;;;;;;5053535;28;20222;-65
2022/09/30 01:22:51;;;;;;;1.83;1.60;;;16.40;60.30;;;;;;5054102;28;20226;-65
2022/09/30 01:25:20;;;;;;;1.33;1.23;;;16.40;60.30;;;;;;5054027;28;20221;-65
2022/09/30 01:28:23;;;;;;;1.23;1.20;;;16.40;60.30;;;;;;5054192;28;20637;-64
2022/09/30 01:31:15;;;;;;;1.50;1.40;;;16.40;60.30;;;;;;5053146;28;20288;-64
2022/09/30 01:33:45;;;;;;;1.40;1.40;;;16.40;60.40;;;;;;5037921;28;20536;-64
2022/09/30 01:36:24;;;;;;;1.35;1.33;;;16.40;60.30;;;;;;5054044;28;20171;-64
2022/09/30 01:39:27;;;;;;;1.60;1.50;;;16.40;60.30;;;;;;5052952;28;20171;-64
2022/09/30 01:42:11;;;;;;;1.30;1.23;;;16.40;60.30;;;;;;5053991;28;20234;-65
2022/09/30 01:44:49;;;;;;;1.40;1.30;;;16.40;60.30;;;;;;5037600;28;20213;-64
2022/09/30 01:47:48;;;;;;;1.60;1.30;;;16.40;60.40;;;;;;5051867;28;20289;-65
2022/09/30 01:50:18;;;;;;;2.05;1.45;;;16.40;60.30;;;;;;5051940;28;20191;-65
2022/09/30 01:52:51;;;;;;;1.60;1.10;;;16.40;60.40;;;;;;5052776;28;20171;-65
2022/09/30 01:55:25;;;;;;;1.25;1.20;;;16.40;60.30;;;;;;5051672;28;20671;-65
2022/09/30 01:57:58;;;;;;;1.40;1.30;;;16.40;60.30;;;;;;5052373;28;20174;-65
2022/09/30 02:00:24;;;;;;;1.30;1.20;;;16.30;60.30;;;;;;5052451;28;20179;-65
2022/09/30 02:02:57;;;;;;;1.40;1.30;;;16.40;61.20;;;;;;5035240;28;20233;-65
2022/09/30 02:05:35;;;;;;;1.20;1.08;;;16.30;60.30;;;;;;5036278;28;20175;-65
2022/09/30 02:08:04;;;;;;;1.20;1.10;;;16.30;60.30;;;;;;5036026;28;20186;-65
2022/09/30 02:10:34;;;;;;;1.27;1.17;;;16.30;60.30;;;;;;5052589;28;20600;-66
2022/09/30 02:13:09;;;;;;;1.33;1.33;;;16.30;60.20;;;;;;5035369;28;20245;-65
2022/09/30 02:15:38;;;;;;;1.20;1.20;;;16.30;60.30;;;;;;5051834;28;20206;-65
2022/09/30 02:18:11;;;;;;;1.45;1.10;;;16.30;60.30;;;;;;5035721;28;20642;-65
2022/09/30 02:20:38;;;;;;;1.15;1.15;;;16.30;60.30;;;;;;5053621;28;20183;-65
2022/09/30 02:23:24;;;;;;;1.00;1.00;;;16.30;60.40;;;;;;5051040;28;20210;-65
2022/09/30 02:26:17;;;;;;;1.10;1.00;;;16.30;60.30;;;;;;5052266;28;20228;-65
2022/09/30 02:28:48;;;;;;;1.00;1.00;;;16.30;60.30;;;;;;5052514;28;20175;-65
2022/09/30 02:31:14;;;;;;;1.33;1.23;;;16.30;60.40;;;;;;5051777;28;20257;-64
2022/09/30 02:33:45;;;;;;;1.00;1.00;;;16.30;60.30;;;;;;5051884;28;20191;-64
2022/09/30 02:36:15;;;;;;;1.85;1.10;;;16.30;60.30;;;;;;5051934;28;20629;-64
2022/09/30 02:38:42;;;;;;;1.13;1.13;;;16.30;60.20;;;;;;5053045;28;20189;-65
2022/09/30 02:41:14;;;;;;;1.20;1.10;;;16.30;60.30;;;;;;5051503;28;20637;-65
2022/09/30 02:43:40;;;;;;;1.10;1.10;;;16.30;60.30;;;;;;5034277;28;20231;-65
2022/09/30 02:46:30;;;;;;;1.08;1.05;;;16.30;60.30;;;;;;5052483;28;20560;-66
2022/09/30 02:49:03;;;;;;;1.20;1.20;;;16.20;60.20;;;;;;5051972;28;20639;-65
2022/09/30 02:51:42;;;;;;;0.98;0.98;;;16.30;60.30;;;;;;5051057;28;20178;-65
2022/09/30 02:54:25;;;;;;;1.17;1.08;;;16.20;60.20;;;;;;5051394;28;20186;-66
2022/09/30 02:56:57;;;;;;;0.88;0.88;;;16.20;60.30;;;;;;5035602;28;20580;-65
2022/09/30 02:59:22;;;;;;;1.00;1.00;;;16.20;60.20;;;;;;5051729;28;20614;-65
2022/09/30 03:01:48;;;;;;;1.00;1.00;;;16.20;60.20;;;;;;5034344;28;20209;-64
2022/09/30 03:04:20;;;;;;;1.15;1.08;;;16.20;60.20;;;;;;5051806;28;20718;-65
2022/09/30 03:06:46;;;;;;;1.05;0.98;;;16.20;60.20;;;;;;5035684;28;20214;-65
2022/09/30 03:09:11;;;;;;;0.90;0.90;;;16.20;60.20;;;;;;5051280;28;20635;-65
2022/09/30 03:11:37;;;;;;;1.05;1.05;;;16.20;60.30;;;;;;5051940;28;20254;-66
2022/09/30 03:14:22;;;;;;;1.25;1.23;;;16.20;60.30;;;;;;5051184;28;20179;-66
2022/09/30 03:17:19;;;;;;;1.00;1.00;;;16.20;60.20;;;;;;5054026;28;20171;-65
2022/09/30 03:19:58;;;;;;;1.48;0.95;;;16.20;60.20;;;;;;5056101;28;20163;-65
2022/09/30 03:22:56;;;;;;;0.90;0.90;;;16.20;60.20;;;;;;5055649;28;20195;-65
2022/09/30 03:25:31;;;;;;;1.45;1.10;;;16.20;60.20;;;;;;5054844;28;20630;-65
2022/09/30 03:28:25;;;;;;;1.52;1.30;;;16.20;60.20;;;;;;5055079;28;20236;-65
2022/09/30 03:30:57;;;;;;;0.80;0.80;;;16.10;60.20;;;;;;5055477;28;20684;-64
2022/09/30 03:33:26;;;;;;;1.70;1.10;;;16.20;60.20;;;;;;5055902;28;20175;-64
2022/09/30 03:36:01;;;;;;;1.17;1.08;;;16.20;60.20;;;;;;5056633;28;20179;-64
2022/09/30 03:38:48;;;;;;;0.90;0.90;;;16.20;60.20;;;;;;5055610;28;20181;-65
2022/09/30 03:41:37;;;;;;;1.30;1.20;;;16.10;60.20;;;;;;5055540;28;20185;-65
2022/09/30 03:44:30;;;;;;;1.33;1.27;;;16.10;60.10;;;;;;5053043;28;20202;-65
2022/09/30 03:47:01;;;;;;;1.00;1.00;;;16.20;60.30;;;;;;5052974;28;20220;-65
2022/09/30 03:49:29;;;;;;;1.65;1.20;;;16.20;60.20;;;;;;5055361;28;20183;-65
2022/09/30 03:51:55;;;;;;;1.15;1.15;;;16.10;60.20;;;;;;5055015;28;20203;-64
2022/09/30 03:54:21;;;;;;;0.85;0.85;;;16.10;60.20;;;;;;5037560;28;20208;-64
2022/09/30 03:56:47;;;;;;;1.00;1.00;;;16.10;60.20;;;;;;5038312;28;20660;-64
2022/09/30 03:59:23;;;;;;;1.40;1.30;;;16.10;60.20;;;;;;5055693;28;20175;-65
2022/09/30 04:01:48;;;;;;;1.05;1.05;;;16.10;60.20;;;;;;5038601;28;20170;-65
2022/09/30 04:04:14;;;;;;;1.20;1.20;;;16.10;60.20;;;;;;5055584;28;20183;-65
2022/09/30 04:06:40;;;;;;;1.20;1.10;;;16.10;60.20;;;;;;5055900;28;20217;-64
2022/09/30 04:09:05;;;;;;;1.30;1.20;;;16.10;60.30;;;;;;5054916;28;20171;-64
2022/09/30 04:11:31;;;;;;;1.08;1.05;;;16.10;60.30;;;;;;5055601;28;20201;-65
2022/09/30 04:13:56;;;;;;;2.55;1.20;;;16.10;60.20;;;;;;5055749;28;20205;-64
2022/09/30 04:16:22;;;;;;;1.00;1.00;;;16.10;60.20;;;;;;5055089;28;20172;-66
2022/09/30 04:18:47;;;;;;;1.15;1.15;;;16.10;60.20;;;;;;5055625;28;20695;-65
2022/09/30 04:21:13;;;;;;;1.55;1.45;;;16.10;60.30;;;;;;5054578;28;20194;-65
2022/09/30 04:23:39;;;;;;;1.40;1.30;;;16.10;60.20;;;;;;5055668;28;20210;-65
2022/09/30 04:26:05;;;;;;;1.20;1.10;;;16.10;60.20;;;;;;5055302;28;20171;-65
2022/09/30 04:28:31;;;;;;;0.90;0.90;;;16.00;60.20;;;;;;5053956;28;20260;-65
2022/09/30 04:31:04;;;;;;;1.33;1.23;;;16.00;60.20;;;;;;5055291;28;20534;-65
2022/09/30 04:33:29;;;;;;;1.20;1.20;;;16.00;60.20;;;;;;5055476;28;20198;-64
2022/09/30 04:35:56;;;;;;;1.30;1.20;;;16.10;60.20;;;;;;5054604;28;20630;-64
2022/09/30 04:38:23;;;;;;;1.58;1.48;;;16.00;60.20;;;;;;5054393;28;20190;-65
2022/09/30 04:40:49;;;;;;;1.20;1.10;;;16.00;60.20;;;;;;5055280;28;20660;-65
2022/09/30 04:43:17;;;;;;;1.25;1.15;;;16.00;60.20;;;;;;5054266;28;20221;-66
2022/09/30 04:45:43;;;;;;;1.30;1.20;;;16.00;60.20;;;;;;5055351;28;20179;-65
2022/09/30 04:48:09;;;;;;;1.50;1.40;;;16.00;60.20;;;;;;5054936;28;20255;-66
2022/09/30 04:50:35;;;;;;;1.27;1.20;;;16.00;60.10;;;;;;5053995;28;20614;-66
2022/09/30 04:53:00;;;;;;;1.50;1.40;;;16.00;60.20;;;;;;5054341;28;20185;-66
2022/09/30 04:55:26;;;;;;;1.40;1.35;;;16.00;60.20;;;;;;5054821;28;20270;-66
2022/09/30 04:57:51;;;;;;;1.33;1.27;;;16.00;60.20;;;;;;5053951;28;20209;-65
2022/09/30 05:00:17;;;;;;;1.10;1.10;;;16.00;60.20;;;;;;5054437;28;20202;-66
2022/09/30 05:02:43;;;;;;;2.42;1.88;;;16.00;60.30;;;;;;5054848;28;20222;-65
2022/09/30 05:05:09;;;;;;;1.38;1.27;;;15.90;60.20;;;;;;5053512;28;20179;-64
2022/09/30 05:07:35;;;;;;;1.30;1.20;;;16.00;60.20;;;;;;5054640;28;20185;-65
2022/09/30 05:10:00;;;;;;;1.40;1.30;;;16.00;60.30;;;;;;5054260;28;20175;-65
2022/09/30 05:12:26;;;;;;;1.10;1.10;;;16.00;60.30;;;;;;5053944;28;20222;-65
2022/09/30 05:14:51;;;;;;;1.20;1.10;;;15.90;60.20;;;;;;5055021;28;20167;-65
2022/09/30 05:17:17;;;;;;;1.38;1.33;;;15.90;60.20;;;;;;5054443;28;20194;-65
2022/09/30 05:19:42;;;;;;;1.38;1.27;;;15.90;60.30;;;;;;5053697;28;20182;-66
2022/09/30 05:22:08;;;;;;;1.50;1.40;;;15.90;60.20;;;;;;5053956;28;20207;-65
2022/09/30 05:24:33;;;;;;;1.30;1.20;;;16.00;60.20;;;;;;5053268;28;20168;-65
2022/09/30 05:27:00;;;;;;;1.40;1.30;;;15.90;60.20;;;;;;5053854;28;20224;-65
2022/09/30 05:29:26;;;;;;;1.60;1.45;;;15.90;60.20;;;;;;5054161;28;20172;-64
2022/09/30 05:31:51;;;;;;;1.75;1.10;;;15.90;60.20;;;;;;5053225;28;20185;-64
2022/09/30 05:34:17;;;;;;;1.30;1.20;;;15.90;60.20;;;;;;5053996;28;20179;-64
2022/09/30 05:36:43;;;;;;;1.58;1.48;;;15.90;60.30;;;;;;5054193;28;20175;-65
2022/09/30 05:39:12;;;;;;;2.03;1.52;;;16.00;60.30;;;;;;5052987;28;20168;-64
2022/09/30 05:41:37;;;;;;;1.52;1.42;;;15.90;60.10;;;;;;5054219;28;20176;-65
2022/09/30 05:44:03;;;;;;;1.58;1.48;;;16.00;60.20;;;;;;5054025;28;20202;-65
2022/09/30 05:46:29;;;;;;;1.42;1.33;;;16.00;60.20;;;;;;5053317;28;20211;-65
2022/09/30 05:48:54;;;;;;;1.58;1.48;;;16.00;60.20;;;;;;5053955;28;20249;-66
2022/09/30 05:51:20;;;;;;;1.38;1.27;;;15.90;60.10;;;;;;5053633;28;20257;-65
2022/09/30 05:53:46;;;;;;;2.03;1.63;;;16.00;60.20;;;;;;5053208;28;20183;-65
2022/09/30 05:56:12;;;;;;;1.50;1.40;;;15.90;60.20;;;;;;5053568;28;20182;-65
2022/09/30 05:58:39;;;;;;;2.38;1.48;;;16.00;60.20;;;;;;5053716;28;20185;-65
2022/09/30 06:01:09;;;;;;;1.80;1.70;;;16.00;60.20;;;;;;5052720;28;20175;-65
2022/09/30 06:03:34;;;;;;;1.58;1.48;;;16.00;60.20;;;;;;5053077;28;20210;-65
2022/09/30 06:06:00;;;;;;;1.80;1.70;;;16.00;60.30;;;;;;5053248;28;20175;-64
2022/09/30 06:08:25;;;;;;;1.83;1.50;;;16.00;60.10;;;;;;5051358;28;20183;-65
2022/09/30 06:10:51;;;;;;;1.40;1.40;;;16.00;59.90;;;;;;5053578;28;20202;-65
2022/09/30 06:13:16;;;;;;;2.08;1.58;;;16.10;59.80;;;;;;5052883;28;20774;-65
2022/09/30 06:15:43;;;;;;;1.60;1.50;;;16.20;59.70;;;;;;5052948;28;20522;-65
2022/09/30 06:18:08;;;;;;;1.58;1.48;;;16.30;59.60;;;;;;5053160;28;20179;-65
2022/09/30 06:20:35;;;;;;;2.63;1.83;;;16.40;59.50;;;;;;5053389;28;20174;-66
2022/09/30 06:23:01;;;;;;;5.80;1.98;;;16.60;59.50;;;;;;5051190;28;20210;-65
2022/09/30 06:25:30;;;;;;;1.85;1.75;;;16.80;59.50;;;;;;5053066;28;20179;-66
2022/09/30 06:27:56;;;;;;;3.55;1.63;;;17.00;59.20;;;;;;5052652;28;20181;-65
2022/09/30 06:30:21;;;;;;;2.67;1.65;;;17.20;59.00;;;;;;5053415;28;20254;-67
2022/09/30 06:32:47;;;;;;;2.25;1.50;;;17.50;58.80;;;;;;5053367;28;20183;-64
2022/09/30 06:35:12;;;;;;;5.28;1.90;;;17.60;58.30;;;;;;5052049;28;20705;-65
2022/09/30 06:37:38;;;;;;;5.90;1.73;;;17.90;58.20;;;;;;5053300;28;20183;-66
2022/09/30 06:40:04;;;;;;;2.70;1.42;;;18.00;57.90;;;;;;5062495;28;20303;-66
2022/09/30 06:42:30;;;;;;;4.53;1.85;;;18.10;58.40;;;;;;5053873;28;20218;-67
2022/09/30 06:44:56;;;;;;;2.55;1.50;;;18.20;57.50;;;;;;5073112;28;20174;-66
2022/09/30 06:47:21;;;;;;;4.10;1.58;;;18.30;57.50;;;;;;5056617;28;20778;-66
2022/09/30 06:49:47;;;;;;;3.05;1.73;;;18.40;57.40;;;;;;5052189;28;20167;-68
2022/09/30 06:52:12;;;;;;;1.73;1.38;;;18.40;57.30;;;;;;5052149;28;20637;-67
2022/09/30 06:54:40;;;;;;;2.13;1.48;;;18.40;57.20;;;;;;5053080;28;20199;-67
2022/09/30 06:57:06;;;;;;;3.72;1.83;;;18.30;57.40;;;;;;5068513;28;20175;-66
2022/09/30 06:59:32;;;;;;;2.72;1.95;;;18.20;57.30;;;;;;5073085;28;20174;-65
2022/09/30 07:01:57;;;;;;;3.55;1.83;;;18.20;57.60;;;;;;5072646;28;20208;-65
2022/09/30 07:04:23;;;;;;;2.58;1.67;;;18.20;57.60;;;;;;5052021;28;20645;-65
2022/09/30 07:06:49;;;;;;;2.33;1.50;;;18.20;57.70;;;;;;5052791;28;20175;-66
2022/09/30 07:09:15;;;;;;;2.58;1.63;;;18.20;57.60;;;;;;5052624;28;20713;-65
2022/09/30 07:11:40;;;;;;;4.95;1.70;;;18.20;57.60;;;;;;5052129;28;20709;-65
2022/09/30 07:14:06;;;;;;;2.35;1.40;;;18.30;57.70;;;;;;5068514;28;20617;-67
2022/09/30 07:16:33;;;;;;;1.55;1.30;;;18.30;57.70;;;;;;5072979;28;20178;-66
2022/09/30 07:18:59;;;;;;;2.47;1.63;;;18.20;57.80;;;;;;5071911;28;20174;-66
2022/09/30 07:21:25;;;;;;;1.95;1.73;;;18.20;57.80;;;;;;5053150;28;20178;-66
2022/09/30 07:23:52;;;;;;;2.55;1.50;;;18.20;57.90;;;;;;5052737;28;20297;-65
2022/09/30 07:26:19;;;;;;;1.50;1.40;;;18.10;58.10;;;;;;5051703;28;20262;-67
2022/09/30 07:28:44;;;;;;;2.25;1.52;;;18.20;58.10;;;;;;5052711;28;20179;-66
2022/09/30 07:31:17;;;;;;;3.30;1.67;;;18.10;58.20;;;;;;5052124;28;20200;-64
2022/09/30 07:33:43;;;;;;;1.88;1.58;;;18.20;58.40;;;;;;5052292;28;20175;-64
2022/09/30 07:36:09;;;;;;;1.65;1.55;;;18.20;58.20;;;;;;5051866;28;20525;-64
2022/09/30 07:38:36;;;;;;;2.63;1.75;;;18.20;58.10;;;;;;5052065;28;20236;-65
2022/09/30 07:41:14;;;;;;;2.25;1.88;;;18.10;58.30;;;;;;5052273;28;20176;-65
2022/09/30 07:43:41;;;;;;;3.85;1.80;;;18.10;58.30;;;;;;5070536;28;20237;-65
2022/09/30 07:46:08;;;;;;;1.50;1.40;;;18.00;58.40;;;;;;5071402;28;20549;-65
2022/09/30 07:48:46;;;;;;;1.77;1.52;;;18.00;58.50;;;;;;5053217;28;20641;-65
2022/09/30 07:51:22;;;;;;;3.38;1.90;;;17.90;58.60;;;;;;5052120;28;20548;-66
2022/09/30 07:53:49;;;;;;;4.13;1.75;;;17.90;58.80;;;;;;5051756;28;20159;-65
2022/09/30 07:56:15;;;;;;;2.40;1.65;;;17.90;59.00;;;;;;5051994;28;20205;-65
2022/09/30 07:58:41;;;;;;;3.80;2.20;;;17.90;59.10;;;;;;5052595;28;20622;-65
2022/09/30 08:01:07;;;;;;;1.70;1.52;;;17.80;59.10;;;;;;5051376;28;20186;-65
2022/09/30 08:03:38;;;;;;;2.75;1.92;;;17.80;59.20;;;;;;5053155;28;20211;-65
2022/09/30 08:06:11;;;;;;;3.08;1.80;;;17.80;59.20;;;;;;5056022;28;20190;-66
2022/09/30 08:08:36;;;;;;;2.13;1.90;;;17.80;59.40;;;;;;5055553;28;20189;-65
2022/09/30 08:11:02;;;;;;;3.05;1.90;;;17.80;59.50;;;;;;5055635;28;20254;-65
2022/09/30 08:13:28;;;;;;;3.40;1.80;;;17.80;59.60;;;;;;5054924;28;20231;-64
2022/09/30 08:15:53;;;;;;;5.03;2.22;;;17.90;59.50;;;;;;5056101;28;20254;-66
2022/09/30 08:18:19;;;;;;;2.25;1.70;;;18.00;59.50;;;;;;5055714;28;20601;-65
2022/09/30 08:20:44;;;;;;;4.43;1.90;;;18.10;59.40;;;;;;5055049;28;20705;-64
2022/09/30 08:23:10;;;;;;;2.67;2.20;;;18.10;59.40;;;;;;5055357;28;20717;-65
2022/09/30 08:25:35;;;;;;;3.33;1.88;;;18.10;59.30;;;;;;5055550;28;20649;-64
2022/09/30 08:28:01;;;;;;;3.63;2.00;;;18.10;59.30;;;;;;5054595;28;20215;-64
2022/09/30 08:30:26;;;;;;;2.30;1.58;;;18.10;59.40;;;;;;5055749;28;20187;-66
2022/09/30 08:32:52;;;;;;;5.65;1.88;;;18.10;59.40;;;;;;5055820;28;20199;-65
2022/09/30 08:35:17;;;;;;;6.57;2.60;;;18.10;59.50;;;;;;5054524;28;20182;-63
2022/09/30 08:37:43;;;;;;;4.35;2.40;;;18.00;59.60;;;;;;5055353;28;20183;-61
2022/09/30 08:40:16;;;;;;;2.58;2.08;;;18.00;59.60;;;;;;5055266;28;20167;-65
2022/09/30 08:42:44;;;;;;;4.57;2.75;;;18.00;59.50;;;;;;5037396;28;20256;-63
2022/09/30 08:45:19;;;;;;;4.45;2.40;;;18.00;59.60;;;;;;5055216;28;20205;-64
2022/09/30 08:48:12;;;;;;;2.33;2.13;;;18.00;59.70;;;;;;5066312;28;20181;-64
2022/09/30 08:50:56;;;;;;;4.18;2.20;;;17.90;59.70;;;;;;5073475;28;20163;-63
2022/09/30 08:53:29;;;;;;;2.40;2.05;;;17.90;59.80;;;;;;5073728;28;20181;-63
2022/09/30 08:55:56;;;;;;;2.80;2.00;;;17.90;59.80;;;;;;5053175;28;20538;-63
2022/09/30 08:58:32;;;;;;;5.18;2.92;;;17.90;59.80;;;;;;5055279;28;20182;-64
2022/09/30 09:01:03;;;;;;;8.98;2.88;;;18.00;59.80;;;;;;5038034;28;20207;-64
2022/09/30 09:03:29;;;;;;;5.03;2.20;;;18.00;59.80;;;;;;5054229;28;20619;-64
2022/09/30 09:06:19;;;;;;;3.45;1.92;;;18.00;59.80;;;;;;5055084;28;20229;-64
2022/09/30 09:08:48;;;;;;;3.15;2.20;;;18.00;59.80;;;;;;5053879;28;20206;-62
2022/09/30 09:11:23;;;;;;;2.85;1.92;;;18.00;59.80;;;;;;5053606;28;20178;-61
2022/09/30 09:14:39;;;;;;;3.67;2.03;;;18.00;59.80;;;;;;5034494;28;20222;-62
2022/09/30 09:17:10;;;;;;;5.75;2.53;;;18.10;59.90;;;;;;5024630;28;20192;-68
2022/09/30 09:19:40;;;;;;;2.85;1.90;;;18.10;59.90;;;;;;5034987;28;20176;-64
2022/09/30 09:22:06;;;;;;;3.63;2.10;;;18.10;59.80;;;;;;5033232;28;20689;-61
2022/09/30 09:24:44;;;;;;;4.55;2.35;;;18.10;59.80;;;;;;5033022;28;20267;-63
2022/09/30 09:27:24;;;;;;;5.30;2.10;;;18.10;59.80;;;;;;5033315;28;20202;-63
2022/09/30 09:30:10;;;;;;;2.42;1.60;;;18.10;59.90;;;;;;5034589;28;20179;-63
2022/09/30 09:32:36;;;;;;;3.17;2.10;;;18.20;59.90;;;;;;5040113;28;20179;-63
2022/09/30 09:35:12;;;;;;;3.20;1.98;;;18.20;59.90;;;;;;5064862;28;20170;-63
2022/09/30 09:38:23;;;;;;;4.18;1.77;;;18.10;59.90;;;;;;5060098;28;20179;-62
2022/09/30 09:40:59;;;;;;;4.70;2.10;;;18.10;59.90;;;;;;5050374;28;20624;-63
2022/09/30 09:43:57;;;;;;;3.40;1.77;;;18.20;60.00;;;;;;5074215;28;20296;-63
2022/09/30 09:46:45;;;;;;;3.03;2.15;;;18.20;60.00;;;;;;5035706;28;20210;-63
2022/09/30 09:49:22;;;;;;;4.03;1.70;;;18.20;59.90;;;;;;5072738;28;20223;-63
2022/09/30 09:52:12;;;;;;;2.75;2.22;;;18.20;59.90;;;;;;5073447;28;20186;-63
2022/09/30 09:54:45;;;;;;;5.05;1.98;;;18.20;59.90;;;;;;5057592;28;20171;-63
2022/09/30 09:57:13;;;;;;;3.33;1.90;;;18.20;59.90;;;;;;5053710;28;20179;-63
2022/09/30 09:59:57;;;;;;;4.10;2.50;;;18.20;59.90;;;;;;5053127;28;20237;-63
2022/09/30 10:02:27;;;;;;;2.13;1.92;;;18.20;59.90;;;;;;5053538;28;20588;-63
2022/09/30 10:05:00;;;;;;;5.90;1.65;;;18.20;59.80;;;;;;5053894;28;20167;-63
2022/09/30 10:07:30;;;;;;;6.72;2.20;;;18.20;59.90;;;;;;5053144;28;20167;-63
2022/09/30 10:10:29;;;;;;;3.30;1.80;;;18.20;59.90;;;;;;5055044;28;20179;-63
2022/09/30 10:12:54;;;;;;;3.53;1.90;;;18.30;59.90;;;;;;5060530;28;20680;-63
2022/09/30 10:15:21;;;;;;;2.20;2.00;;;18.20;59.90;;;;;;5073399;28;20182;-63
2022/09/30 10:17:55;;;;;;;2.22;1.83;;;18.30;59.90;;;;;;5072333;28;20178;-63
2022/09/30 10:20:26;;;;;;;2.47;1.65;;;18.30;59.90;;;;;;5071399;28;20179;-63
2022/09/30 10:22:56;;;;;;;4.72;1.98;;;18.30;59.90;;;;;;5071893;28;20206;-63
2022/09/30 10:25:23;;;;;;;2.03;1.52;;;18.30;59.90;;;;;;5055714;28;20174;-63
2022/09/30 10:27:56;;;;;;;1.70;1.50;;;18.30;59.90;;;;;;5072163;28;20231;-63
2022/09/30 10:30:41;;;;;;;3.08;1.67;;;18.30;59.90;;;;;;5073346;28;20182;-62
2022/09/30 10:33:21;;;;;;;3.45;1.58;;;18.30;59.90;;;;;;5074031;28;20183;-61
2022/09/30 10:35:55;;;;;;;3.53;1.58;;;18.40;59.90;;;;;;5071626;28;20198;-60
2022/09/30 10:38:25;;;;;;;1.83;1.73;;;18.40;59.90;;;;;;5055474;28;20207;-61
2022/09/30 10:40:50;;;;;;;2.33;1.55;;;18.40;59.90;;;;;;5072197;28;20228;-60
2022/09/30 10:43:47;;;;;;;2.35;1.40;;;18.40;59.90;;;;;;5070873;28;20430;-62
2022/09/30 10:46:13;;;;;;;5.80;1.88;;;18.40;59.90;;;;;;5036438;28;20198;-62
2022/09/30 10:48:38;;;;;;;1.63;1.50;;;18.40;60.10;;;;;;5054256;28;20178;-63
2022/09/30 10:51:04;;;;;;;2.58;1.80;;;18.40;60.10;;;;;;5054973;28;20192;-64
2022/09/30 10:53:32;;;;;;;3.42;2.15;;;18.40;60.10;;;;;;5069327;28;20676;-63
2022/09/30 10:55:58;;;;;;;2.20;1.60;;;18.40;60.10;;;;;;5052020;28;20183;-63
2022/09/30 10:58:36;;;;;;;2.75;1.40;;;18.50;60.10;;;;;;5051867;28;20206;-64
2022/09/30 11:01:14;;;;;;;3.05;1.83;;;18.50;60.10;;;;;;5051495;28;20159;-61
2022/09/30 11:04:03;;;;;;;5.25;1.60;;;18.50;60.10;;;;;;5050904;28;20211;-61
2022/09/30 11:06:31;;;;;;;2.85;1.55;;;18.50;60.10;;;;;;5053031;28;20170;-62
2022/09/30 11:09:05;;;;;;;2.72;1.67;;;18.50;60.10;;;;;;5052933;28;20182;-61
2022/09/30 11:11:40;;;;;;;1.60;1.50;;;18.50;60.10;;;;;;5051516;28;20641;-61
2022/09/30 11:14:43;;;;;;;3.88;1.90;;;18.50;60.20;;;;;;5035691;28;20171;-61
2022/09/30 11:17:39;;;;;;;2.40;1.50;;;18.50;60.10;;;;;;5040200;28;20545;-61
2022/09/30 11:20:13;;;;;;;2.00;1.55;;;18.50;60.10;;;;;;5051003;28;20683;-60
2022/09/30 11:22:42;;;;;;;3.00;1.98;;;18.50;60.10;;;;;;5051355;28;20242;-61
2022/09/30 11:25:15;;;;;;;2.83;1.73;;;18.50;60.10;;;;;;5050506;28;20179;-63
2022/09/30 11:27:55;;;;;;;1.85;1.30;;;18.50;60.00;;;;;;5051761;28;20172;-63
2022/09/30 11:30:31;;;;;;;1.60;1.48;;;18.60;60.00;;;;;;5051517;28;20524;-63
2022/09/30 11:33:12;;;;;;;2.03;1.33;;;18.60;59.90;;;;;;5052306;28;20171;-62
2022/09/30 11:36:07;;;;;;;2.05;1.80;;;18.60;59.90;;;;;;5052662;28;20248;-62
2022/09/30 11:38:41;;;;;;;1.50;1.40;;;18.50;59.90;;;;;;5053602;28;20177;-60
2022/09/30 11:41:25;;;;;;;1.90;1.65;;;18.50;60.00;;;;;;5056476;28;20181;-60
2022/09/30 11:43:56;;;;;;;1.88;1.77;;;18.60;60.00;;;;;;5056172;28;20206;-61
2022/09/30 11:46:25;;;;;;;3.40;1.98;;;18.50;60.10;;;;;;5036941;28;20661;-61
2022/09/30 11:49:14;;;;;;;1.67;1.10;;;18.50;60.10;;;;;;5076573;28;20175;-62
2022/09/30 11:51:56;;;;;;;1.63;1.52;;;18.60;60.10;;;;;;5075834;28;20177;-63
2022/09/30 11:55:10;;;;;;;3.90;1.67;;;18.60;60.00;;;;;;5065711;28;20170;-61
2022/09/30 11:57:42;;;;;;;2.78;1.80;;;18.60;59.90;;;;;;5036563;28;20696;-62
2022/09/30 12:00:11;;;;;;;1.50;1.40;;;18.60;59.80;;;;;;5054282;28;20256;-61
2022/09/30 12:02:43;;;;;;;2.58;1.63;;;18.60;59.90;;;;;;5056210;28;20214;-60
2022/09/30 12:05:28;;;;;;;1.50;1.40;;;18.60;59.90;;;;;;5054889;28;20167;-60
2022/09/30 12:08:01;;;;;;;6.55;1.45;;;18.60;59.90;;;;;;5054984;28;20261;-60
2022/09/30 12:10:57;;;;;;;1.77;1.40;;;18.60;59.80;;;;;;5055276;28;20171;-60
2022/09/30 12:13:29;;;;;;;2.35;1.45;;;18.60;59.80;;;;;;5045231;28;20272;-60
2022/09/30 12:15:55;;;;;;;2.55;1.45;;;18.60;59.80;;;;;;5038109;28;20258;-61
2022/09/30 12:18:22;;;;;;;2.13;1.40;;;18.60;59.80;;;;;;5037984;28;20175;-60
2022/09/30 12:20:50;;;;;;;1.70;1.40;;;18.60;59.70;;;;;;5055223;28;20199;-61
2022/09/30 12:23:20;;;;;;;2.50;1.60;;;18.60;59.80;;;;;;5037693;28;20709;-61
2022/09/30 12:25:59;;;;;;;2.42;1.50;;;18.70;59.80;;;;;;5055815;28;20589;-61
2022/09/30 12:32:10;;;;;;;2.67;1.55;;;18.60;59.90;;;;;;5055550;28;20286;-62
2022/09/30 12:35:02;;;;;;;1.50;1.40;;;18.50;60.00;;;;;;5055061;28;20174;-62
2022/09/30 12:37:34;;;;;;;2.08;1.58;;;18.40;60.30;;;;;;5055542;28;20240;-62
2022/09/30 12:40:10;;;;;;;1.42;1.30;;;18.50;60.20;;;;;;5054142;28;20183;-63
2022/09/30 12:43:00;;;;;;;3.08;1.80;;;18.50;60.20;;;;;;5053600;28;20206;-62
2022/09/30 12:45:32;;;;;;;3.28;1.50;;;18.50;60.10;;;;;;5068555;28;20182;-61
2022/09/30 12:47:59;;;;;;;2.00;1.58;;;18.60;60.00;;;;;;5060542;28;20228;-63
2022/09/30 12:50:29;;;;;;;3.92;1.40;;;18.50;60.10;;;;;;5053097;28;20530;-63
2022/09/30 12:52:56;;;;;;;1.50;1.40;;;18.50;60.10;;;;;;5054955;28;20544;-61
2022/09/30 12:55:27;;;;;;;1.50;1.33;;;18.50;60.20;;;;;;5053136;28;20182;-62
2022/09/30 12:57:53;;;;;;;2.97;1.77;;;18.40;60.30;;;;;;5038020;28;20159;-63
2022/09/30 13:00:20;;;;;;;3.15;1.58;;;18.50;60.30;;;;;;5054712;28;20175;-63
2022/09/30 13:02:48;;;;;;;2.45;1.45;;;18.50;60.10;;;;;;5053153;28;20261;-62
2022/09/30 13:05:26;;;;;;;1.50;1.40;;;18.50;59.90;;;;;;5054841;28;20190;-62
2022/09/30 13:08:03;;;;;;;2.40;1.23;;;18.40;60.10;;;;;;5055031;28;20197;-62
2022/09/30 13:10:35;;;;;;;3.53;1.80;;;18.50;60.20;;;;;;5054429;28;20197;-63
2022/09/30 13:13:10;;;;;;;2.47;1.70;;;18.60;59.90;;;;;;5054331;28;20241;-61
2022/09/30 13:15:35;;;;;;;1.58;1.48;;;18.70;59.60;;;;;;5055036;28;20190;-60
2022/09/30 13:18:25;;;;;;;2.40;1.27;;;18.70;59.70;;;;;;5053977;28;20183;-61